Portada
METAR-TAF:

METAR-TAF

Aeroports :

Okmulgee, Oklahoma, Estats Units d'Amèrica

latitud: 35-40-05N, longitud: 095-56-55W, altitud: 220 m

Observació

L'informe es va fer fa 29 minuts, a les 12:35 UTC
Vent 3 kt del Oest
Temperatura 4°C
Humitat 87%
Pressió 1014 hPa
Visibilitat: 16.1 km
Cel clar

METAR: KOKM 191235Z AUTO 26003KT 10SM CLR 04/02 A2994 RMK AO2 T00400021

Hora: 07:04 (13:04 UTC)


TAF: manca

Observacions i pronòstics meteorològics de més de 4000 aeroports (METAR i TAF).

Les estacions disponibles són els punts grocs i vermells al mapa.

Posi el ratolí al punt desitjat per veure el nom de l'estació.

Feu clic per veure les observacions i els pronòstics meteorològics.

Per canviar el mapa: feu clic els botons verds amb una creu de color negre per apropar; al botó verd amb un guió per allunyar la imatge; o en les fletxes verdes per a mapes adjacents.


METAR-TAF: